Sweet Briar, Virginia
Current Conditions -  °F | °C
As of 4:54 PM on Thursday 27 Nov 2014 (Local Time) from KLYH Reporting Station
Broken Clouds Broken Clouds  
Wind Chill: 33°   Ceiling: 4700
Heat Index: 39°   Visibility: 10mi
Dew Point: 23°   Wind: 9mph
Humidity: 53%   Direction: 300°WNW
Pressure: 30.13"   Gusts: NA
Location:  37.55°N, 79.07°W
Report Text: KLYH 272154Z 30008KT 10SM BKN047 BKN055 04/M05 A3013 RMK AO2 SLP208 T00391050 $
Loading
Personal Weather Stations






























Interactive Weather Map New forecast layout! Learn more

10-Day Weather Forecast

Advertisements
Track Severe Weather on mobile